createdAt,value
2022-08-18T00:00:47.564Z,16.82
2022-08-18T00:01:47.657Z,16.65
2022-08-18T00:03:00.459Z,16.71
2022-08-18T00:03:56.143Z,16.69
2022-08-18T00:04:49.666Z,16.69
2022-08-18T00:05:47.517Z,16.66
2022-08-18T00:06:47.715Z,16.79
2022-08-18T00:07:47.509Z,16.66
2022-08-18T00:08:47.485Z,16.65
2022-08-18T00:09:47.481Z,16.74
2022-08-18T00:10:47.473Z,16.71
2022-08-18T00:11:47.510Z,16.75
2022-08-18T00:12:47.523Z,16.76
2022-08-18T00:13:47.448Z,16.71
2022-08-18T00:14:47.441Z,16.71
2022-08-18T00:15:48.893Z,16.68
2022-08-18T00:16:47.430Z,16.66
2022-08-18T00:17:47.411Z,16.68
2022-08-18T00:18:47.406Z,16.65
2022-08-18T00:19:48.380Z,16.72
2022-08-18T00:20:48.437Z,16.69
2022-08-18T00:21:47.386Z,16.65
2022-08-18T00:22:47.422Z,16.74
2022-08-18T00:23:47.371Z,16.62
2022-08-18T00:24:48.581Z,16.61
2022-08-18T00:25:47.376Z,16.65
2022-08-18T00:26:47.344Z,16.68
2022-08-18T00:27:47.333Z,16.61
2022-08-18T00:28:47.327Z,16.65
2022-08-18T00:29:47.318Z,16.74
2022-08-18T00:30:47.341Z,16.59
2022-08-18T00:31:48.298Z,16.71
2022-08-18T00:32:47.416Z,16.74
2022-08-18T00:33:47.286Z,16.69
2022-08-18T00:34:47.277Z,16.72
2022-08-18T00:35:47.295Z,16.69
2022-08-18T00:36:47.261Z,16.66
2022-08-18T00:37:47.340Z,16.68
2022-08-18T00:38:47.241Z,16.71
2022-08-18T00:39:47.816Z,16.61
2022-08-18T00:40:47.256Z,16.61
2022-08-18T00:41:47.207Z,16.59
2022-08-18T00:42:47.275Z,16.61
2022-08-18T00:43:47.198Z,16.61
2022-08-18T00:44:47.188Z,16.59
2022-08-18T00:45:47.211Z,16.61
2022-08-18T00:46:47.169Z,16.56
2022-08-18T00:47:47.182Z,16.57
2022-08-18T00:48:48.894Z,16.61
2022-08-18T00:49:47.162Z,16.53
2022-08-18T00:50:47.178Z,16.59
2022-08-18T00:51:47.147Z,16.57
2022-08-18T00:52:47.126Z,16.68
2022-08-18T00:53:47.127Z,16.71
2022-08-18T00:54:47.108Z,16.66
2022-08-18T00:55:54.085Z,16.64
2022-08-18T00:56:48.089Z,16.61
2022-08-18T00:57:47.108Z,16.65
2022-08-18T00:58:47.082Z,16.59
2022-08-18T00:59:47.072Z,16.65
2022-08-18T01:00:47.111Z,16.56
2022-08-18T01:01:47.085Z,16.50
2022-08-18T01:02:47.050Z,16.53
2022-08-18T01:03:47.039Z,16.53
2022-08-18T01:04:47.029Z,16.56
2022-08-18T01:05:47.033Z,16.53
2022-08-18T01:06:47.045Z,16.43
2022-08-18T01:07:47.140Z,16.36
2022-08-18T01:08:47.022Z,16.38
2022-08-18T01:09:46.990Z,16.38
2022-08-18T01:10:46.988Z,16.39
2022-08-18T01:11:47.006Z,16.29
2022-08-18T01:12:47.253Z,16.41
2022-08-18T01:13:47.960Z,16.36
2022-08-18T01:14:46.961Z,16.41
2022-08-18T01:15:46.939Z,16.38
2022-08-18T01:16:56.695Z,16.35
2022-08-18T01:17:47.988Z,16.31
2022-08-18T01:18:46.911Z,16.35
2022-08-18T01:19:46.898Z,16.43
2022-08-18T01:20:46.904Z,16.31
2022-08-18T01:21:46.921Z,16.38
2022-08-18T01:22:46.970Z,16.35
2022-08-18T01:23:46.877Z,16.49
2022-08-18T01:24:46.868Z,16.50
2022-08-18T01:25:46.856Z,16.50
2022-08-18T01:26:46.877Z,16.57
2022-08-18T01:27:46.871Z,16.57
2022-08-18T01:28:46.846Z,16.53
2022-08-18T01:29:46.814Z,16.53
2022-08-18T01:30:47.804Z,16.62
2022-08-18T01:31:54.762Z,16.59
2022-08-18T01:32:47.789Z,16.54
2022-08-18T01:33:46.785Z,16.65
2022-08-18T01:34:46.771Z,16.59
2022-08-18T01:35:46.772Z,16.57
2022-08-18T01:36:46.785Z,16.64
2022-08-18T01:37:46.754Z,16.62
2022-08-18T01:38:46.743Z,16.65
2022-08-18T01:41:17.213Z,16.62
2022-08-18T01:41:25.256Z,16.66
2022-08-18T01:41:47.774Z,16.62
2022-08-18T01:42:46.704Z,16.68
2022-08-18T01:43:46.694Z,16.68
2022-08-18T01:44:46.695Z,16.72
2022-08-18T01:45:46.693Z,16.76
2022-08-18T01:46:46.732Z,16.61
2022-08-18T01:47:47.739Z,16.61
2022-08-18T01:48:47.673Z,16.66
2022-08-18T01:49:46.649Z,16.57
2022-08-18T01:50:46.633Z,16.50
2022-08-18T01:51:47.657Z,16.53
2022-08-18T01:52:46.628Z,16.50
2022-08-18T01:53:46.643Z,16.43
2022-08-18T01:54:46.602Z,16.34
2022-08-18T01:55:46.601Z,16.36
2022-08-18T01:56:46.621Z,16.36
2022-08-18T01:57:46.674Z,16.35
2022-08-18T01:58:46.566Z,16.32
2022-08-18T01:59:46.565Z,16.21
2022-08-18T02:00:46.558Z,16.25
2022-08-18T02:01:50.415Z,16.21
2022-08-18T02:02:47.542Z,16.29
2022-08-18T02:03:47.524Z,16.28
2022-08-18T02:04:46.513Z,16.21
2022-08-18T02:05:46.509Z,16.21
2022-08-18T02:06:46.541Z,16.29
2022-08-18T02:07:46.547Z,16.28
2022-08-18T02:08:46.565Z,16.20
2022-08-18T02:09:47.473Z,16.24
2022-08-18T02:10:46.465Z,16.26
2022-08-18T02:11:46.489Z,16.25
2022-08-18T02:12:46.455Z,16.20
2022-08-18T02:13:46.445Z,16.24
2022-08-18T02:14:46.444Z,16.25
2022-08-18T02:15:46.426Z,16.28
2022-08-18T02:16:46.414Z,16.29
2022-08-18T02:17:46.439Z,16.24
2022-08-18T02:18:48.473Z,16.28
2022-08-18T02:19:46.397Z,16.39
2022-08-18T02:20:46.387Z,16.32
2022-08-18T02:21:46.390Z,16.31
2022-08-18T02:22:46.396Z,16.36
2022-08-18T02:23:52.796Z,16.32
2022-08-18T02:24:47.344Z,16.31
2022-08-18T02:25:46.344Z,16.31
2022-08-18T02:26:46.329Z,16.31
2022-08-18T02:27:46.351Z,16.28
2022-08-18T02:28:46.316Z,16.13
2022-08-18T02:29:46.324Z,16.16
2022-08-18T02:30:46.338Z,16.16
2022-08-18T02:31:46.289Z,16.21
2022-08-18T02:32:46.312Z,16.17
2022-08-18T02:33:51.867Z,16.20
2022-08-18T02:34:47.264Z,16.25
2022-08-18T02:35:46.260Z,16.24
2022-08-18T02:36:46.250Z,16.16
2022-08-18T02:37:46.318Z,16.09
2022-08-18T02:38:48.705Z,16.12
2022-08-18T02:39:47.258Z,16.08
2022-08-18T02:40:46.220Z,16.16
2022-08-18T02:41:46.203Z,16.20
2022-08-18T02:42:46.224Z,16.08
2022-08-18T02:43:46.197Z,16.08
2022-08-18T02:44:46.181Z,16.10
2022-08-18T02:45:46.172Z,16.16
2022-08-18T02:46:46.165Z,16.15
2022-08-18T02:47:46.245Z,16.21
2022-08-18T02:48:46.152Z,16.28
2022-08-18T02:49:46.162Z,16.26
2022-08-18T02:50:46.144Z,16.31
2022-08-18T02:51:46.121Z,16.35
2022-08-18T02:52:46.136Z,16.39
2022-08-18T02:53:46.120Z,16.35
2022-08-18T02:54:46.099Z,16.34
2022-08-18T02:55:46.085Z,16.28
2022-08-18T02:56:46.087Z,16.21
2022-08-18T02:57:46.111Z,16.25
2022-08-18T02:58:46.063Z,16.21
2022-08-18T02:59:47.445Z,16.24
2022-08-18T03:00:46.054Z,16.29
2022-08-18T03:01:46.186Z,16.31
2022-08-18T03:02:46.062Z,16.29
2022-08-18T03:03:46.024Z,16.28
2022-08-18T03:04:46.015Z,16.35
2022-08-18T03:05:46.002Z,16.38
2022-08-18T03:06:45.999Z,16.28
2022-08-18T03:07:46.024Z,16.43
2022-08-18T03:08:45.981Z,16.38
2022-08-18T03:09:45.978Z,16.35
2022-08-18T03:10:45.976Z,16.31
2022-08-18T03:11:45.957Z,16.36
2022-08-18T03:12:45.986Z,16.34
2022-08-18T03:13:45.932Z,16.38
2022-08-18T03:14:46.935Z,16.36
2022-08-18T03:15:45.936Z,16.41
2022-08-18T03:16:53.651Z,16.44
2022-08-18T03:17:46.940Z,16.35
2022-08-18T03:18:45.899Z,16.36
2022-08-18T03:19:46.770Z,16.41
2022-08-18T03:20:45.884Z,16.31
2022-08-18T03:21:45.877Z,16.43
2022-08-18T03:22:45.871Z,16.41
2022-08-18T03:23:45.893Z,16.32
2022-08-18T03:24:46.842Z,16.35
2022-08-18T03:25:45.847Z,16.32
2022-08-18T03:26:45.838Z,16.38
2022-08-18T03:27:45.829Z,16.29
2022-08-18T03:28:45.850Z,16.28
2022-08-18T03:29:45.813Z,16.47
2022-08-18T03:30:45.802Z,16.39
2022-08-18T03:31:45.797Z,16.50
2022-08-18T03:32:46.093Z,16.41
2022-08-18T03:33:45.814Z,16.36
2022-08-18T03:34:45.782Z,16.34
2022-08-18T03:35:45.765Z,16.29
2022-08-18T03:36:45.743Z,16.31
2022-08-18T03:37:46.746Z,16.28
2022-08-18T03:38:45.767Z,16.31
2022-08-18T03:39:46.782Z,16.31
2022-08-18T03:40:45.720Z,16.26
2022-08-18T03:41:58.241Z,16.34
2022-08-18T03:42:46.703Z,16.17
2022-08-18T03:43:51.210Z,16.34
2022-08-18T03:44:46.682Z,16.29
2022-08-18T03:45:45.671Z,16.24
2022-08-18T03:46:45.678Z,16.34
2022-08-18T03:47:45.757Z,16.26
2022-08-18T03:48:45.681Z,16.43
2022-08-18T03:49:45.644Z,16.36
2022-08-18T03:50:45.630Z,16.39
2022-08-18T03:51:45.630Z,16.46
2022-08-18T03:52:45.624Z,16.39
2022-08-18T03:53:45.641Z,16.50
2022-08-18T03:54:45.614Z,16.50
2022-08-18T03:55:45.610Z,16.49
2022-08-18T03:56:45.585Z,16.56
2022-08-18T03:57:45.642Z,16.56
2022-08-18T03:58:45.603Z,16.54
2022-08-18T03:59:45.571Z,16.53
2022-08-18T04:00:45.559Z,16.56
2022-08-18T04:01:45.682Z,16.59
2022-08-18T04:02:45.539Z,16.59
2022-08-18T04:03:45.560Z,16.61
2022-08-18T04:04:45.524Z,16.56
2022-08-18T04:05:45.516Z,16.61
2022-08-18T04:06:45.521Z,16.56
2022-08-18T04:07:45.518Z,16.51
2022-08-18T04:08:45.517Z,16.53
2022-08-18T04:09:45.484Z,16.50
2022-08-18T04:10:45.496Z,16.50
2022-08-18T04:11:45.477Z,16.47
2022-08-18T04:12:45.455Z,16.44
2022-08-18T04:13:45.470Z,16.31
2022-08-18T04:14:46.446Z,16.39
2022-08-18T04:15:45.439Z,16.47
2022-08-18T04:16:45.427Z,16.43
2022-08-18T04:18:03.525Z,16.46
2022-08-18T04:18:46.437Z,16.51
2022-08-18T04:19:45.395Z,16.50
2022-08-18T04:20:59.387Z,16.54
2022-08-18T04:21:46.403Z,16.54
2022-08-18T04:22:45.374Z,16.59
2022-08-18T04:23:45.393Z,16.57
2022-08-18T04:24:45.432Z,16.66
2022-08-18T04:25:45.350Z,16.61
2022-08-18T04:26:45.341Z,16.61
2022-08-18T04:27:45.378Z,16.65
2022-08-18T04:28:45.356Z,16.64
2022-08-18T04:29:45.318Z,16.56
2022-08-18T04:30:45.311Z,16.62
2022-08-18T04:31:45.305Z,16.64
2022-08-18T04:32:45.310Z,16.61
2022-08-18T04:33:45.320Z,16.64
2022-08-18T04:34:45.274Z,16.71
2022-08-18T04:35:45.284Z,16.65
2022-08-18T04:36:45.257Z,16.69
2022-08-18T04:37:45.258Z,16.72
2022-08-18T04:38:45.240Z,16.75
2022-08-18T04:39:45.352Z,16.62
2022-08-18T04:40:45.223Z,16.82
2022-08-18T04:41:45.216Z,16.64
2022-08-18T04:42:45.249Z,16.69
2022-08-18T04:43:45.196Z,16.62
2022-08-18T04:44:45.225Z,16.65
2022-08-18T04:45:45.185Z,16.74
2022-08-18T04:46:45.174Z,16.66
2022-08-18T04:47:45.194Z,16.71
2022-08-18T04:48:45.186Z,16.71
2022-08-18T04:49:45.159Z,16.62
2022-08-18T04:50:45.143Z,16.69
2022-08-18T04:52:26.899Z,16.71
2022-08-18T04:52:46.123Z,16.71
2022-08-18T04:53:45.147Z,16.68
2022-08-18T04:54:45.135Z,16.84
2022-08-18T04:55:45.113Z,16.80
2022-08-18T04:56:45.095Z,16.83
2022-08-18T04:57:45.081Z,16.91
2022-08-18T04:58:45.105Z,16.93
2022-08-18T04:59:45.070Z,16.96
2022-08-18T05:00:45.083Z,16.96
2022-08-18T05:01:45.122Z,17.02
2022-08-18T05:02:45.039Z,17.02
2022-08-18T05:03:50.189Z,16.98
2022-08-18T05:04:46.062Z,17.11
2022-08-18T05:05:45.018Z,17.08
2022-08-18T05:06:45.017Z,17.05
2022-08-18T05:07:45.083Z,17.17
2022-08-18T05:08:44.993Z,17.17
2022-08-18T05:09:45.023Z,17.19
2022-08-18T05:10:44.985Z,17.14
2022-08-18T05:11:44.977Z,17.24
2022-08-18T05:12:44.969Z,17.16
2022-08-18T05:13:44.952Z,17.23
2022-08-18T05:14:44.972Z,17.35
2022-08-18T05:16:07.338Z,17.31
2022-08-18T05:16:48.767Z,17.31
2022-08-18T05:17:44.961Z,17.49
2022-08-18T05:18:44.913Z,17.46
2022-08-18T05:19:44.936Z,17.49
2022-08-18T05:20:44.904Z,17.46
2022-08-18T05:21:44.897Z,17.46
2022-08-18T05:22:44.962Z,17.57
2022-08-18T05:23:44.901Z,17.60
2022-08-18T05:24:44.862Z,17.57
2022-08-18T05:25:44.856Z,17.51
2022-08-18T05:26:44.854Z,17.59
2022-08-18T05:27:44.906Z,17.65
2022-08-18T05:28:44.869Z,17.68
2022-08-18T05:29:45.757Z,17.76
2022-08-18T05:30:44.813Z,17.82
2022-08-18T05:31:44.816Z,17.80
2022-08-18T05:32:48.633Z,17.93
2022-08-18T05:33:44.833Z,17.95
2022-08-18T05:34:44.780Z,17.97
2022-08-18T05:35:44.769Z,17.91
2022-08-18T05:36:44.772Z,18.03
2022-08-18T05:37:44.754Z,18.09
2022-08-18T05:38:44.784Z,18.01
2022-08-18T05:39:44.779Z,18.09
2022-08-18T05:40:44.729Z,18.10
2022-08-18T05:41:44.721Z,18.23
2022-08-18T05:42:44.719Z,18.19
2022-08-18T05:43:51.125Z,18.19
2022-08-18T05:44:45.702Z,18.34
2022-08-18T05:45:44.694Z,18.30
2022-08-18T05:46:44.708Z,18.23
2022-08-18T05:47:44.673Z,18.13
2022-08-18T05:48:44.713Z,18.20
2022-08-18T05:49:44.661Z,18.28
2022-08-18T05:50:44.653Z,18.26
2022-08-18T05:51:44.645Z,18.35
2022-08-18T05:52:45.636Z,18.37
2022-08-18T05:53:44.658Z,18.30
2022-08-18T05:54:44.615Z,18.34
2022-08-18T05:55:47.807Z,18.37
2022-08-18T05:56:45.616Z,18.41
2022-08-18T05:57:44.661Z,18.48
2022-08-18T05:58:44.615Z,18.43
2022-08-18T05:59:44.573Z,18.46
2022-08-18T06:00:44.578Z,18.46
2022-08-18T06:01:44.560Z,18.59
2022-08-18T06:02:44.583Z,18.70
2022-08-18T06:03:45.093Z,18.74
2022-08-18T06:04:44.533Z,18.73
2022-08-18T06:05:44.529Z,18.75
2022-08-18T06:06:47.704Z,18.78
2022-08-18T06:07:45.566Z,18.86
2022-08-18T06:08:44.529Z,18.89
2022-08-18T06:09:44.492Z,18.99
2022-08-18T06:10:44.478Z,18.99
2022-08-18T06:11:44.474Z,19.14
2022-08-18T06:12:47.078Z,19.11
2022-08-18T06:13:45.496Z,19.19
2022-08-18T06:14:44.448Z,19.26
2022-08-18T06:15:44.449Z,19.41
2022-08-18T06:16:45.257Z,19.45
2022-08-18T06:17:44.428Z,19.30
2022-08-18T06:18:44.443Z,19.23
2022-08-18T06:19:44.400Z,19.27
2022-08-18T06:20:44.409Z,19.33
2022-08-18T06:21:44.386Z,19.37
2022-08-18T06:22:52.074Z,19.36
2022-08-18T06:23:45.417Z,19.41
2022-08-18T06:24:44.364Z,19.36
2022-08-18T06:25:44.377Z,19.34
2022-08-18T06:26:44.343Z,19.34
2022-08-18T06:27:44.334Z,19.33
2022-08-18T06:28:44.330Z,19.46
2022-08-18T06:29:44.347Z,19.48
2022-08-18T06:30:44.311Z,19.51
2022-08-18T06:31:44.311Z,19.64
2022-08-18T06:32:44.311Z,19.63
2022-08-18T06:33:45.923Z,19.66
2022-08-18T06:34:44.315Z,19.79
2022-08-18T06:35:44.267Z,19.71
2022-08-18T06:36:44.269Z,19.79
2022-08-18T06:37:44.262Z,19.84
2022-08-18T06:38:45.775Z,20.04
2022-08-18T06:39:44.411Z,20.06
2022-08-18T06:40:44.228Z,19.94
2022-08-18T06:41:44.223Z,20.07
2022-08-18T06:42:44.215Z,20.11
2022-08-18T06:43:44.209Z,19.94
2022-08-18T06:44:44.238Z,19.96
2022-08-18T06:45:44.191Z,19.82
2022-08-18T06:46:44.190Z,19.60
2022-08-18T06:47:44.174Z,19.76
2022-08-18T06:48:44.172Z,19.74
2022-08-18T06:49:44.187Z,19.82
2022-08-18T06:50:44.149Z,19.85
2022-08-18T06:51:44.141Z,19.89
2022-08-18T06:52:44.153Z,19.97
2022-08-18T06:53:44.132Z,20.06
2022-08-18T06:54:49.369Z,20.17
2022-08-18T06:55:45.114Z,20.15
2022-08-18T06:56:44.104Z,20.06
2022-08-18T06:57:44.137Z,20.14
2022-08-18T06:58:44.105Z,20.04
2022-08-18T06:59:44.115Z,20.18
2022-08-18T07:00:44.161Z,20.19
2022-08-18T07:01:45.064Z,20.28
2022-08-18T07:02:44.064Z,20.37
2022-08-18T07:03:44.075Z,20.40
2022-08-18T07:04:44.070Z,20.31
2022-08-18T07:05:44.030Z,20.39
2022-08-18T07:06:44.014Z,20.53
2022-08-18T07:07:44.015Z,20.43
2022-08-18T07:08:44.002Z,20.50
2022-08-18T07:09:44.021Z,20.41
2022-08-18T07:10:44.991Z,20.44
2022-08-18T07:11:43.981Z,20.39
2022-08-18T07:12:43.975Z,20.53
2022-08-18T07:13:43.967Z,20.48
2022-08-18T07:14:43.992Z,20.56
2022-08-18T07:15:44.008Z,20.50
2022-08-18T07:16:59.980Z,20.44
2022-08-18T07:17:45.929Z,20.48
2022-08-18T07:18:43.933Z,20.53
2022-08-18T07:19:43.955Z,20.47
2022-08-18T07:20:43.912Z,20.43
2022-08-18T07:21:43.900Z,20.52
2022-08-18T07:22:43.921Z,20.71
2022-08-18T07:23:53.742Z,20.67
2022-08-18T07:24:44.910Z,20.63
2022-08-18T07:25:43.880Z,20.74
2022-08-18T07:26:43.866Z,20.72
2022-08-18T07:27:43.877Z,20.69
2022-08-18T07:28:43.834Z,20.77
2022-08-18T07:29:44.865Z,20.75
2022-08-18T07:31:00.243Z,20.87
2022-08-18T07:31:45.822Z,21.15
2022-08-18T07:32:43.828Z,21.30
2022-08-18T07:33:43.803Z,21.33
2022-08-18T07:34:43.837Z,21.47
2022-08-18T07:35:43.791Z,21.57
2022-08-18T07:36:43.794Z,21.54
2022-08-18T07:37:43.766Z,21.63
2022-08-18T07:38:44.414Z,21.57
2022-08-18T07:39:48.466Z,21.48
2022-08-18T07:40:43.777Z,21.58
2022-08-18T07:41:43.757Z,21.43
2022-08-18T07:43:00.923Z,21.40
2022-08-18T07:43:44.717Z,21.40
2022-08-18T07:44:43.752Z,21.43
2022-08-18T07:45:43.707Z,21.50
2022-08-18T07:46:43.784Z,21.54
2022-08-18T07:47:43.695Z,21.81
2022-08-18T07:48:43.677Z,21.99
2022-08-18T07:50:13.466Z,22.04
2022-08-18T07:50:58.379Z,22.26
2022-08-18T07:51:45.721Z,22.38
2022-08-18T07:52:46.809Z,22.45
2022-08-18T07:53:43.642Z,22.48
2022-08-18T07:54:49.354Z,22.70
2022-08-18T07:55:45.630Z,22.69
2022-08-18T07:56:43.711Z,22.75
2022-08-18T07:57:43.623Z,22.68
2022-08-18T07:58:43.595Z,22.40
2022-08-18T07:59:43.594Z,22.48
2022-08-18T08:01:00.154Z,22.36
2022-08-18T08:01:45.660Z,22.36
2022-08-18T08:02:43.580Z,22.30
2022-08-18T08:03:43.555Z,22.35
2022-08-18T08:04:43.543Z,22.33
2022-08-18T08:05:43.584Z,22.47
2022-08-18T08:07:06.107Z,22.36
2022-08-18T08:07:45.649Z,22.36
2022-08-18T08:08:43.527Z,22.29
2022-08-18T08:09:47.146Z,22.41
2022-08-18T08:10:44.524Z,22.47
2022-08-18T08:11:44.426Z,22.48
2022-08-18T08:12:43.480Z,22.36
2022-08-18T08:13:55.207Z,22.45
2022-08-18T08:14:45.468Z,22.22
2022-08-18T08:15:43.498Z,22.23
2022-08-18T08:16:43.472Z,22.22
2022-08-18T08:17:43.450Z,22.14
2022-08-18T08:18:43.432Z,22.17
2022-08-18T08:19:59.895Z,22.07
2022-08-18T08:20:45.478Z,22.11
2022-08-18T08:21:43.435Z,22.08
2022-08-18T08:22:44.407Z,22.13
2022-08-18T08:23:45.298Z,22.07
2022-08-18T08:24:44.386Z,22.13
2022-08-18T08:25:46.761Z,22.05
2022-08-18T08:26:44.372Z,22.08
2022-08-18T08:27:43.363Z,22.10
2022-08-18T08:28:43.386Z,22.04
2022-08-18T08:29:43.349Z,21.96
2022-08-18T08:30:43.373Z,21.93
2022-08-18T08:31:43.372Z,21.69
2022-08-18T08:32:43.332Z,21.47
2022-08-18T08:33:43.318Z,21.50
2022-08-18T08:34:43.316Z,21.40
2022-08-18T08:35:47.268Z,21.45
2022-08-18T08:36:44.297Z,21.57
2022-08-18T08:37:43.296Z,21.50
2022-08-18T08:38:44.963Z,21.54
2022-08-18T08:39:44.322Z,21.55
2022-08-18T08:40:43.303Z,21.55
2022-08-18T08:41:43.281Z,21.55
2022-08-18T08:42:43.251Z,21.57
2022-08-18T08:43:43.234Z,21.67
2022-08-18T08:44:58.445Z,21.59
2022-08-18T08:45:45.252Z,21.58
2022-08-18T08:46:43.217Z,21.67
2022-08-18T08:47:43.200Z,21.65
2022-08-18T08:48:43.193Z,21.69
2022-08-18T08:49:43.177Z,21.67
2022-08-18T08:50:43.209Z,21.73
2022-08-18T08:51:43.165Z,21.70
2022-08-18T08:52:43.165Z,21.74
2022-08-18T08:53:43.176Z,21.70
2022-08-18T08:54:43.153Z,21.74
2022-08-18T08:55:43.140Z,21.74
2022-08-18T08:56:43.162Z,21.70
2022-08-18T08:57:43.118Z,21.77
2022-08-18T08:58:43.111Z,21.76
2022-08-18T08:59:43.104Z,21.88
2022-08-18T09:00:43.111Z,21.76
2022-08-18T09:01:43.338Z,21.69
2022-08-18T09:02:48.167Z,21.59
2022-08-18T09:03:45.077Z,21.59
2022-08-18T09:05:07.324Z,21.67
2022-08-18T09:05:44.057Z,21.66
2022-08-18T09:06:43.088Z,21.66
2022-08-18T09:07:43.042Z,21.48
2022-08-18T09:08:43.038Z,21.48
2022-08-18T09:09:43.023Z,21.32
2022-08-18T09:10:43.011Z,21.22
2022-08-18T09:11:43.041Z,21.15
2022-08-18T09:12:42.986Z,21.10
2022-08-18T09:13:43.992Z,21.21
2022-08-18T09:14:42.988Z,21.05
2022-08-18T09:15:42.976Z,21.12
2022-08-18T09:16:43.031Z,21.02
2022-08-18T09:17:42.964Z,21.08
2022-08-18T09:18:42.949Z,21.05
2022-08-18T09:19:42.940Z,20.95
2022-08-18T09:20:47.199Z,20.97
2022-08-18T09:21:44.974Z,20.87
2022-08-18T09:22:42.913Z,20.87
2022-08-18T09:23:42.906Z,20.85
2022-08-18T09:24:42.937Z,20.80
2022-08-18T09:25:42.897Z,20.72
2022-08-18T09:26:42.927Z,20.77
2022-08-18T09:28:09.358Z,20.84
2022-08-18T09:28:44.860Z,20.72
2022-08-18T09:29:44.198Z,20.62
2022-08-18T09:30:42.858Z,20.67
2022-08-18T09:31:42.927Z,20.59
2022-08-18T09:32:49.174Z,20.55
2022-08-18T09:33:43.841Z,20.52
2022-08-18T09:34:45.511Z,20.52
2022-08-18T09:35:42.842Z,20.57
2022-08-18T09:36:42.801Z,20.50
2022-08-18T09:37:42.836Z,20.48
2022-08-18T09:38:42.790Z,20.56
2022-08-18T09:39:42.808Z,20.69
2022-08-18T09:41:44.780Z,20.69
2022-08-18T09:42:48.405Z,20.74
2022-08-18T09:43:43.769Z,20.80
2022-08-18T09:44:42.850Z,20.80
2022-08-18T09:45:42.751Z,20.81
2022-08-18T09:47:43.697Z,20.87
2022-08-18T09:50:37.346Z,20.99
2022-08-18T09:50:43.708Z,20.85
2022-08-18T09:51:42.692Z,20.89
2022-08-18T09:52:42.697Z,20.85
2022-08-18T09:53:42.712Z,20.92
2022-08-18T09:54:42.679Z,20.90
2022-08-18T09:55:52.096Z,20.92
2022-08-18T09:56:53.470Z,20.99
2022-08-18T09:57:44.036Z,21.08
2022-08-18T09:58:42.630Z,21.24
2022-08-18T09:59:42.611Z,21.36
2022-08-18T10:00:42.640Z,21.54
2022-08-18T10:01:42.684Z,21.61
2022-08-18T10:02:47.613Z,21.69
2022-08-18T10:03:43.600Z,21.82
2022-08-18T10:04:42.573Z,21.92
2022-08-18T10:05:42.594Z,22.03
2022-08-18T10:06:42.978Z,21.99
2022-08-18T10:07:44.152Z,22.05
2022-08-18T10:08:42.755Z,22.13
2022-08-18T10:09:44.052Z,22.03
2022-08-18T10:11:00.755Z,21.92
2022-08-18T10:11:43.542Z,21.95
2022-08-18T10:12:42.531Z,22.08
2022-08-18T10:13:48.963Z,22.26
2022-08-18T10:14:45.113Z,22.36
2022-08-18T10:15:42.525Z,22.40
2022-08-18T10:17:12.953Z,22.14
2022-08-18T10:17:44.449Z,21.95
2022-08-18T10:18:42.449Z,21.99
2022-08-18T10:19:42.444Z,22.07
2022-08-18T10:20:42.630Z,21.84
2022-08-18T10:21:42.469Z,21.73
2022-08-18T10:22:42.422Z,21.92
2022-08-18T10:23:47.995Z,21.70
2022-08-18T10:24:43.415Z,21.69
2022-08-18T10:25:42.429Z,21.96
2022-08-18T10:26:42.382Z,22.13
2022-08-18T10:27:43.376Z,22.15
2022-08-18T10:28:42.373Z,22.14
2022-08-18T10:29:42.369Z,22.17
2022-08-18T10:30:49.883Z,22.26
2022-08-18T10:31:43.337Z,22.33
2022-08-18T10:32:44.372Z,22.22
2022-08-18T10:33:43.331Z,22.08
2022-08-18T10:34:51.471Z,21.95
2022-08-18T10:35:43.369Z,21.77
2022-08-18T10:36:42.303Z,21.65
2022-08-18T10:37:42.298Z,21.57
2022-08-18T10:38:46.173Z,21.48
2022-08-18T10:39:43.291Z,21.58
2022-08-18T10:40:42.282Z,21.50
2022-08-18T10:41:42.289Z,21.65
2022-08-18T10:42:42.252Z,21.69
2022-08-18T10:43:46.201Z,21.74
2022-08-18T10:44:44.251Z,21.89
2022-08-18T10:45:50.775Z,22.03
2022-08-18T10:46:46.691Z,22.13
2022-08-18T10:47:42.243Z,22.11
2022-08-18T10:48:42.201Z,22.13
2022-08-18T10:50:43.183Z,22.25
2022-08-18T10:51:58.010Z,22.23
2022-08-18T10:53:44.961Z,22.29
2022-08-18T10:54:51.025Z,22.17
2022-08-18T10:55:48.571Z,22.13
2022-08-18T10:56:43.830Z,22.14
2022-08-18T10:57:42.139Z,22.32
2022-08-18T10:58:42.152Z,22.40
2022-08-18T10:59:52.208Z,22.40
2022-08-18T11:00:43.139Z,22.58
2022-08-18T11:01:42.102Z,22.65
2022-08-18T11:02:42.109Z,22.78
2022-08-18T11:03:51.087Z,22.91
2022-08-18T11:04:44.079Z,22.95
2022-08-18T11:05:42.101Z,22.84
2022-08-18T11:06:42.064Z,23.03
2022-08-18T11:07:42.710Z,23.17
2022-08-18T11:08:42.048Z,23.09
2022-08-18T11:09:45.905Z,22.93
2022-08-18T11:10:58.078Z,22.99
2022-08-18T11:11:52.927Z,23.05
2022-08-18T11:12:43.045Z,23.13
2022-08-18T11:13:42.007Z,23.20
2022-08-18T11:14:41.995Z,23.33
2022-08-18T11:15:41.993Z,23.44
2022-08-18T11:16:42.017Z,22.93
2022-08-18T11:17:42.891Z,22.93
2022-08-18T11:18:43.123Z,23.14
2022-08-18T11:19:42.412Z,23.10
2022-08-18T11:20:43.447Z,23.24
2022-08-18T11:21:43.348Z,23.40
2022-08-18T11:22:41.936Z,23.47
2022-08-18T11:23:42.922Z,23.59
2022-08-18T11:24:41.910Z,23.76
2022-08-18T11:25:41.940Z,23.73
2022-08-18T11:26:41.897Z,23.80
2022-08-18T11:27:41.890Z,23.76
2022-08-18T11:28:45.104Z,23.66
2022-08-18T11:29:41.907Z,23.88
2022-08-18T11:30:41.899Z,23.93
2022-08-18T11:31:41.859Z,23.88
2022-08-18T11:32:51.362Z,23.88
2022-08-18T11:33:42.853Z,23.81
2022-08-18T11:34:45.846Z,23.86
2022-08-18T11:35:42.851Z,23.96
2022-08-18T11:36:47.918Z,24.05
2022-08-18T11:37:49.578Z,24.14
2022-08-18T11:38:42.796Z,24.14
2022-08-18T11:39:41.845Z,24.23
2022-08-18T11:41:48.638Z,24.08
2022-08-18T11:42:42.769Z,24.28
2022-08-18T11:44:42.756Z,24.18
2022-08-18T11:45:41.772Z,24.28
2022-08-18T11:46:42.913Z,24.51
2022-08-18T11:47:41.720Z,24.73
2022-08-18T11:48:51.444Z,24.63
2022-08-18T11:49:42.728Z,24.77
2022-08-18T11:50:41.780Z,24.82
2022-08-18T11:51:42.689Z,24.73
2022-08-18T11:52:41.682Z,24.58
2022-08-18T11:53:41.674Z,24.60
2022-08-18T11:54:50.859Z,24.76
2022-08-18T11:55:48.259Z,24.83
2022-08-18T11:56:42.648Z,24.55
2022-08-18T11:57:46.539Z,24.67
2022-08-18T11:58:42.632Z,24.74
2022-08-18T12:00:44.068Z,24.74
2022-08-18T12:01:42.499Z,24.74
2022-08-18T12:02:42.604Z,24.69
2022-08-18T12:03:41.718Z,24.67
2022-08-18T12:04:41.579Z,24.70
2022-08-18T12:05:45.769Z,24.67
2022-08-18T12:06:43.140Z,24.85
2022-08-18T12:07:41.557Z,24.93
2022-08-18T12:08:56.527Z,24.73
2022-08-18T12:10:16.063Z,24.67
2022-08-18T12:10:43.570Z,24.73
2022-08-18T12:11:42.748Z,24.85
2022-08-18T12:12:41.524Z,24.82
2022-08-18T12:13:41.536Z,24.96
2022-08-18T12:14:41.518Z,24.78
2022-08-18T12:15:43.736Z,24.92
2022-08-18T12:16:41.495Z,24.86
2022-08-18T12:17:42.489Z,24.83
2022-08-18T12:18:42.496Z,24.85
2022-08-18T12:19:41.466Z,24.86
2022-08-18T12:20:41.494Z,24.95
2022-08-18T12:21:41.498Z,24.91
2022-08-18T12:22:41.453Z,25.03
2022-08-18T12:23:49.614Z,25.06
2022-08-18T12:24:42.484Z,24.93
2022-08-18T12:25:41.458Z,24.95
2022-08-18T12:26:47.331Z,24.89
2022-08-18T12:27:42.413Z,24.82
2022-08-18T12:28:41.413Z,24.78
2022-08-18T12:29:43.590Z,24.83
2022-08-18T12:30:42.154Z,24.58
2022-08-18T12:31:47.570Z,24.74
2022-08-18T12:32:49.481Z,24.70
2022-08-18T12:33:48.099Z,24.62
2022-08-18T12:34:42.339Z,24.50
2022-08-18T12:35:42.336Z,24.70
2022-08-18T12:36:42.385Z,24.81
2022-08-18T12:38:43.307Z,25.01
2022-08-18T12:39:41.325Z,25.04
2022-08-18T12:40:41.287Z,24.96
2022-08-18T12:41:41.322Z,25.03
2022-08-18T12:42:41.271Z,24.85
2022-08-18T12:43:41.299Z,24.85
2022-08-18T12:44:41.255Z,24.76
2022-08-18T12:45:41.374Z,24.86
2022-08-18T12:46:42.227Z,24.76
2022-08-18T12:47:41.228Z,24.69
2022-08-18T12:48:41.225Z,24.78
2022-08-18T12:49:41.228Z,24.74
2022-08-18T12:50:54.045Z,24.89
2022-08-18T12:51:43.228Z,24.98
2022-08-18T12:52:41.202Z,24.91
2022-08-18T12:53:58.436Z,24.86
2022-08-18T12:54:55.081Z,24.78
2022-08-18T12:55:43.686Z,24.63
2022-08-18T12:56:41.190Z,24.57
2022-08-18T12:57:53.511Z,24.57
2022-08-18T12:58:42.149Z,24.67
2022-08-18T12:59:41.136Z,24.67
2022-08-18T13:00:41.315Z,24.67
2022-08-18T13:01:41.185Z,24.62